createdAt,value
2018-07-25T00:00:36.058Z,0.00
2018-07-25T00:01:36.103Z,0.00
2018-07-25T00:02:35.465Z,0.00
2018-07-25T00:03:34.680Z,0.00
2018-07-25T00:04:34.758Z,0.00
2018-07-25T00:05:35.470Z,0.00
2018-07-25T00:06:34.688Z,0.00
2018-07-25T00:07:35.493Z,0.00
2018-07-25T00:08:35.466Z,0.00
2018-07-25T00:09:35.630Z,0.00
2018-07-25T00:10:36.276Z,0.00
2018-07-25T00:11:34.715Z,0.00
2018-07-25T00:12:35.541Z,0.00
2018-07-25T00:13:38.281Z,0.00
2018-07-25T00:14:34.705Z,0.00
2018-07-25T00:15:34.754Z,0.00
2018-07-25T00:16:35.561Z,0.00
2018-07-25T00:17:35.866Z,0.00
2018-07-25T00:18:35.498Z,0.00
2018-07-25T00:19:36.040Z,0.00
2018-07-25T00:20:35.948Z,0.00
2018-07-25T00:21:36.091Z,0.00
2018-07-25T00:22:35.467Z,0.00
2018-07-25T00:23:36.341Z,0.00
2018-07-25T00:24:35.552Z,0.00
2018-07-25T00:25:34.798Z,0.00
2018-07-25T00:26:35.569Z,0.00
2018-07-25T00:27:34.794Z,0.00
2018-07-25T00:28:35.435Z,0.00
2018-07-25T00:29:34.803Z,0.00
2018-07-25T00:30:35.492Z,0.00
2018-07-25T00:31:34.796Z,0.00
2018-07-25T00:32:34.744Z,0.00
2018-07-25T00:33:36.522Z,0.00
2018-07-25T00:34:34.819Z,0.00
2018-07-25T00:35:35.948Z,0.00
2018-07-25T00:36:36.551Z,0.00
2018-07-25T00:37:36.448Z,0.00
2018-07-25T00:38:35.561Z,0.00
2018-07-25T00:39:34.836Z,0.00
2018-07-25T00:40:34.777Z,0.00
2018-07-25T00:41:34.777Z,0.00
2018-07-25T00:42:35.687Z,0.00
2018-07-25T00:43:38.196Z,0.00
2018-07-25T00:44:36.013Z,0.00
2018-07-25T00:45:36.594Z,0.00
2018-07-25T00:46:35.579Z,0.00
2018-07-25T00:47:34.855Z,0.00
2018-07-25T00:48:34.926Z,0.00
2018-07-25T00:49:36.731Z,0.00
2018-07-25T00:50:34.860Z,0.00
2018-07-25T00:51:34.822Z,0.00
2018-07-25T00:52:35.566Z,0.00
2018-07-25T00:53:35.910Z,0.00
2018-07-25T00:54:35.567Z,0.00
2018-07-25T00:55:37.464Z,0.00
2018-07-25T00:56:35.999Z,0.00
2018-07-25T00:57:35.964Z,0.00
2018-07-25T00:58:36.025Z,0.00
2018-07-25T00:59:35.961Z,0.00
2018-07-25T01:00:35.614Z,0.00
2018-07-25T01:01:36.006Z,0.00
2018-07-25T01:02:36.104Z,0.00
2018-07-25T01:03:35.615Z,0.00
2018-07-25T01:04:35.977Z,0.00
2018-07-25T01:05:35.647Z,0.00
2018-07-25T01:06:35.906Z,0.00
2018-07-25T01:07:36.019Z,0.00
2018-07-25T01:08:35.795Z,0.00
2018-07-25T01:09:36.017Z,0.00
2018-07-25T01:10:36.010Z,0.00
2018-07-25T01:11:36.054Z,0.00
2018-07-25T01:12:36.046Z,0.00
2018-07-25T01:13:36.025Z,0.00
2018-07-25T01:14:37.887Z,0.00
2018-07-25T01:15:36.167Z,0.00
2018-07-25T01:16:35.678Z,0.00
2018-07-25T01:17:35.968Z,0.00
2018-07-25T01:18:36.116Z,0.00
2018-07-25T01:19:36.102Z,0.00
2018-07-25T01:20:36.095Z,0.00
2018-07-25T01:21:36.140Z,0.00
2018-07-25T01:22:36.510Z,0.00
2018-07-25T01:23:36.488Z,0.00
2018-07-25T01:24:35.799Z,0.00
2018-07-25T01:25:36.003Z,0.00
2018-07-25T01:26:36.524Z,0.00
2018-07-25T01:27:37.524Z,0.00
2018-07-25T01:28:36.048Z,0.00
2018-07-25T01:29:36.094Z,0.00
2018-07-25T01:30:36.025Z,0.00
2018-07-25T01:31:36.024Z,0.00
2018-07-25T01:32:36.041Z,0.00
2018-07-25T01:33:36.042Z,0.00
2018-07-25T01:34:34.992Z,0.00
2018-07-25T01:35:36.092Z,0.00
2018-07-25T01:36:36.049Z,0.00
2018-07-25T01:37:36.064Z,0.00
2018-07-25T01:38:34.970Z,0.00
2018-07-25T01:39:36.179Z,0.00
2018-07-25T01:40:36.096Z,0.00
2018-07-25T01:41:36.037Z,0.00
2018-07-25T01:42:36.186Z,0.00
2018-07-25T01:43:36.105Z,0.00
2018-07-25T01:44:35.039Z,0.00
2018-07-25T01:45:36.147Z,0.00
2018-07-25T01:46:36.209Z,0.00
2018-07-25T01:47:36.191Z,0.00
2018-07-25T01:48:36.145Z,0.00
2018-07-25T01:49:35.772Z,0.00
2018-07-25T01:50:36.132Z,0.00
2018-07-25T01:51:36.164Z,0.00
2018-07-25T01:52:36.136Z,0.00
2018-07-25T01:53:36.596Z,0.00
2018-07-25T01:54:36.091Z,0.00
2018-07-25T01:55:36.063Z,0.00
2018-07-25T01:56:35.742Z,0.00
2018-07-25T01:57:36.148Z,0.00
2018-07-25T01:58:36.569Z,0.00
2018-07-25T01:59:36.055Z,0.00
2018-07-25T02:00:35.773Z,0.00
2018-07-25T02:01:36.173Z,0.00
2018-07-25T02:02:36.046Z,0.00
2018-07-25T02:03:35.151Z,0.00
2018-07-25T02:04:36.178Z,0.00
2018-07-25T02:05:36.093Z,0.00
2018-07-25T02:06:35.800Z,0.00
2018-07-25T02:07:35.100Z,0.00
2018-07-25T02:08:36.565Z,0.00
2018-07-25T02:09:35.801Z,0.00
2018-07-25T02:10:36.177Z,0.00
2018-07-25T02:11:35.823Z,0.00
2018-07-25T02:12:36.255Z,0.00
2018-07-25T02:13:36.309Z,0.00
2018-07-25T02:14:36.203Z,0.00
2018-07-25T02:15:36.287Z,0.00
2018-07-25T02:16:36.288Z,0.00
2018-07-25T02:17:35.867Z,0.00
2018-07-25T02:18:35.881Z,0.00
2018-07-25T02:19:36.373Z,0.00
2018-07-25T02:20:36.295Z,0.00
2018-07-25T02:21:35.888Z,0.00
2018-07-25T02:22:35.883Z,0.00
2018-07-25T02:23:36.303Z,0.00
2018-07-25T02:24:36.254Z,0.00
2018-07-25T02:25:38.336Z,0.00
2018-07-25T02:26:36.126Z,0.00
2018-07-25T02:27:35.107Z,0.00
2018-07-25T02:28:36.239Z,0.00
2018-07-25T02:29:36.476Z,0.00
2018-07-25T02:30:36.200Z,0.00
2018-07-25T02:31:36.199Z,0.00
2018-07-25T02:32:36.553Z,0.00
2018-07-25T02:33:35.891Z,0.00
2018-07-25T02:34:36.280Z,0.00
2018-07-25T02:35:36.545Z,0.00
2018-07-25T02:36:36.197Z,0.00
2018-07-25T02:37:36.611Z,0.00
2018-07-25T02:38:36.251Z,0.00
2018-07-25T02:39:36.236Z,0.00
2018-07-25T02:40:36.298Z,0.00
2018-07-25T02:41:36.296Z,0.00
2018-07-25T02:42:35.221Z,0.00
2018-07-25T02:43:36.691Z,0.00
2018-07-25T02:44:35.875Z,0.00
2018-07-25T02:45:35.980Z,0.00
2018-07-25T02:46:36.304Z,0.00
2018-07-25T02:47:35.938Z,0.00
2018-07-25T02:48:36.211Z,0.00
2018-07-25T02:49:35.210Z,0.00
2018-07-25T02:50:35.949Z,0.00
2018-07-25T02:51:35.935Z,0.00
2018-07-25T02:52:35.945Z,0.00
2018-07-25T02:53:36.759Z,0.00
2018-07-25T02:54:35.166Z,0.00
2018-07-25T02:55:35.990Z,0.00
2018-07-25T02:56:36.599Z,0.00
2018-07-25T02:57:36.254Z,0.00
2018-07-25T02:58:38.157Z,0.00
2018-07-25T02:59:36.324Z,0.00
2018-07-25T03:00:36.269Z,0.00
2018-07-25T03:01:36.306Z,0.00
2018-07-25T03:02:36.355Z,0.00
2018-07-25T03:03:36.344Z,0.00
2018-07-25T03:04:35.213Z,0.00
2018-07-25T03:05:35.906Z,0.00
2018-07-25T03:06:35.954Z,0.00
2018-07-25T03:07:36.350Z,4.00
2018-07-25T03:08:36.276Z,4.00
2018-07-25T03:09:36.002Z,0.00
2018-07-25T03:10:36.301Z,0.00
2018-07-25T03:11:36.318Z,4.00
2018-07-25T03:12:36.199Z,4.00
2018-07-25T03:13:36.698Z,0.00
2018-07-25T03:14:35.295Z,4.00
2018-07-25T03:15:36.381Z,4.00
2018-07-25T03:16:36.883Z,4.00
2018-07-25T03:17:35.982Z,8.00
2018-07-25T03:18:36.429Z,4.00
2018-07-25T03:19:36.423Z,8.00
2018-07-25T03:20:36.489Z,8.00
2018-07-25T03:21:35.302Z,8.00
2018-07-25T03:22:35.247Z,8.00
2018-07-25T03:23:36.438Z,12.00
2018-07-25T03:24:36.000Z,12.00
2018-07-25T03:25:36.029Z,16.00
2018-07-25T03:26:36.388Z,20.00
2018-07-25T03:27:35.245Z,20.00
2018-07-25T03:28:36.005Z,24.00
2018-07-25T03:29:36.007Z,28.00
2018-07-25T03:30:36.170Z,32.00
2018-07-25T03:31:36.495Z,36.00
2018-07-25T03:32:36.308Z,40.00
2018-07-25T03:33:36.013Z,40.00
2018-07-25T03:34:36.342Z,44.00
2018-07-25T03:35:36.822Z,52.00
2018-07-25T03:36:36.005Z,56.00
2018-07-25T03:37:36.738Z,64.00
2018-07-25T03:38:42.589Z,72.00
2018-07-25T03:39:36.081Z,76.00
2018-07-25T03:40:36.322Z,84.00
2018-07-25T03:41:36.823Z,88.00
2018-07-25T03:42:35.978Z,100.00
2018-07-25T03:43:36.755Z,108.00
2018-07-25T03:44:36.715Z,112.00
2018-07-25T03:45:36.355Z,120.00
2018-07-25T03:46:36.844Z,132.00
2018-07-25T03:47:36.448Z,136.00
2018-07-25T03:48:36.397Z,148.00
2018-07-25T03:49:36.527Z,152.00
2018-07-25T03:50:39.060Z,164.00
2018-07-25T03:51:35.306Z,176.00
2018-07-25T03:52:38.636Z,184.00
2018-07-25T03:53:36.805Z,196.00
2018-07-25T03:54:36.549Z,204.00
2018-07-25T03:55:36.190Z,216.00
2018-07-25T03:56:37.027Z,224.00
2018-07-25T03:57:36.558Z,236.00
2018-07-25T03:58:36.194Z,248.00
2018-07-25T03:59:36.614Z,256.00
2018-07-25T04:00:35.363Z,268.00
2018-07-25T04:01:35.351Z,280.00
2018-07-25T04:02:36.914Z,292.00
2018-07-25T04:03:36.832Z,300.00
2018-07-25T04:04:36.088Z,312.00
2018-07-25T04:06:36.780Z,336.00
2018-07-25T04:07:36.185Z,344.00
2018-07-25T04:08:36.163Z,356.00
2018-07-25T04:09:36.803Z,368.00
2018-07-25T04:10:36.087Z,380.00
2018-07-25T04:11:36.786Z,392.00
2018-07-25T04:12:36.510Z,404.00
2018-07-25T04:13:36.530Z,412.00
2018-07-25T04:14:36.787Z,424.00
2018-07-25T04:15:36.072Z,436.00
2018-07-25T04:16:35.374Z,452.00
2018-07-25T04:17:36.118Z,460.00
2018-07-25T04:18:36.750Z,472.00
2018-07-25T04:19:36.228Z,484.00
2018-07-25T04:20:37.231Z,496.00
2018-07-25T04:21:37.580Z,508.00
2018-07-25T04:22:37.072Z,520.00
2018-07-25T04:23:36.746Z,532.00
2018-07-25T04:24:43.354Z,544.00
2018-07-25T04:25:37.151Z,560.00
2018-07-25T04:26:37.250Z,572.00
2018-07-25T04:27:37.170Z,584.00
2018-07-25T04:28:37.570Z,592.00
2018-07-25T04:29:37.295Z,604.00
2018-07-25T04:30:37.208Z,616.00
2018-07-25T04:31:37.302Z,628.00
2018-07-25T04:32:37.346Z,640.00
2018-07-25T04:33:37.768Z,652.00
2018-07-25T04:34:37.055Z,660.00
2018-07-25T04:35:37.346Z,676.00
2018-07-25T04:36:37.606Z,684.00
2018-07-25T04:37:37.238Z,700.00
2018-07-25T04:38:37.746Z,708.00
2018-07-25T04:39:39.618Z,720.00
2018-07-25T04:40:37.135Z,732.00
2018-07-25T04:41:37.588Z,744.00
2018-07-25T04:42:37.328Z,752.00
2018-07-25T04:43:37.128Z,760.00
2018-07-25T04:44:37.243Z,772.00
2018-07-25T04:45:37.602Z,784.00
2018-07-25T04:46:39.308Z,796.00
2018-07-25T04:47:37.614Z,804.00
2018-07-25T04:48:37.129Z,816.00
2018-07-25T04:49:37.297Z,824.00
2018-07-25T04:50:36.812Z,836.00
2018-07-25T04:51:37.169Z,844.00
2018-07-25T04:52:37.611Z,856.00
2018-07-25T04:53:37.163Z,868.00
2018-07-25T04:54:37.178Z,880.00
2018-07-25T04:55:37.177Z,892.00
2018-07-25T04:56:37.615Z,904.00
2018-07-25T04:57:37.785Z,916.00
2018-07-25T04:58:37.150Z,924.00
2018-07-25T04:59:37.521Z,936.00
2018-07-25T05:00:37.633Z,948.00
2018-07-25T05:01:37.105Z,956.00
2018-07-25T05:02:37.097Z,968.00
2018-07-25T05:03:37.144Z,976.00
2018-07-25T05:04:37.058Z,984.00
2018-07-25T05:05:37.283Z,992.00
2018-07-25T05:06:39.359Z,1004.00
2018-07-25T05:07:37.611Z,1012.00
2018-07-25T05:08:37.122Z,1020.00
2018-07-25T05:09:37.175Z,1032.00
2018-07-25T05:10:37.153Z,1040.00
2018-07-25T05:11:37.617Z,1048.00
2018-07-25T05:12:37.272Z,1060.00
2018-07-25T05:13:35.480Z,1068.00
2018-07-25T05:14:43.156Z,1076.00
2018-07-25T05:15:35.465Z,1084.00
2018-07-25T05:16:51.144Z,1096.00
2018-07-25T05:17:37.161Z,1104.00
2018-07-25T05:18:35.491Z,1112.00
2018-07-25T05:19:35.508Z,1120.00
2018-07-25T05:20:37.102Z,1128.00
2018-07-25T05:21:37.630Z,1140.00
2018-07-25T05:22:37.652Z,1152.00
2018-07-25T05:23:37.779Z,1156.00
2018-07-25T05:24:37.634Z,1164.00
2018-07-25T05:25:37.630Z,1172.00
2018-07-25T05:26:37.190Z,1184.00
2018-07-25T05:27:43.371Z,1188.00
2018-07-25T05:28:51.344Z,1192.00
2018-07-25T05:29:37.632Z,1204.00
2018-07-25T05:30:37.370Z,1216.00
2018-07-25T05:31:37.163Z,1220.00
2018-07-25T05:32:35.545Z,1228.00
2018-07-25T05:33:38.607Z,1236.00
2018-07-25T05:34:35.614Z,1240.00
2018-07-25T05:35:35.549Z,1248.00
2018-07-25T05:36:35.528Z,1252.00
2018-07-25T05:37:35.530Z,1260.00
2018-07-25T05:38:35.530Z,1268.00
2018-07-25T05:39:36.605Z,1276.00
2018-07-25T05:40:36.701Z,1284.00
2018-07-25T05:41:36.848Z,1288.00
2018-07-25T05:42:35.551Z,1296.00
2018-07-25T05:43:35.629Z,1304.00
2018-07-25T05:44:37.610Z,1308.00
2018-07-25T05:45:36.730Z,1316.00
2018-07-25T05:46:35.617Z,1320.00
2018-07-25T05:48:36.604Z,1332.00
2018-07-25T05:49:35.572Z,1340.00
2018-07-25T05:50:35.562Z,1344.00
2018-07-25T05:51:36.501Z,1348.00
2018-07-25T05:52:35.583Z,1356.00
2018-07-25T05:53:37.579Z,1360.00
2018-07-25T05:54:35.629Z,1364.00
2018-07-25T05:55:36.423Z,1376.00
2018-07-25T05:56:36.824Z,1380.00
2018-07-25T05:57:37.109Z,1388.00
2018-07-25T05:58:36.769Z,1396.00
2018-07-25T05:59:39.649Z,1400.00
2018-07-25T06:00:35.588Z,1408.00
2018-07-25T06:01:36.811Z,1416.00
2018-07-25T06:02:36.897Z,1420.00
2018-07-25T06:03:36.771Z,1424.00
2018-07-25T06:04:35.878Z,1436.00
2018-07-25T06:05:37.181Z,1440.00
2018-07-25T06:06:36.868Z,1460.00
2018-07-25T06:07:36.744Z,1492.00
2018-07-25T06:08:37.672Z,1524.00
2018-07-25T06:09:35.609Z,1548.00
2018-07-25T06:10:37.058Z,1608.00
2018-07-25T06:11:36.816Z,1648.00
2018-07-25T06:12:35.645Z,1676.00
2018-07-25T06:13:37.647Z,1640.00
2018-07-25T06:14:35.648Z,1608.00
2018-07-25T06:15:35.618Z,1532.00
2018-07-25T06:16:35.617Z,1516.00
2018-07-25T06:17:36.748Z,1520.00
2018-07-25T06:18:35.630Z,1524.00
2018-07-25T06:19:35.652Z,1532.00
2018-07-25T06:20:37.010Z,1532.00
2018-07-25T06:21:37.177Z,1540.00
2018-07-25T06:22:37.026Z,1540.00
2018-07-25T06:23:35.736Z,1552.00
2018-07-25T06:24:35.644Z,1552.00
2018-07-25T06:25:36.829Z,1560.00
2018-07-25T06:26:36.775Z,1564.00
2018-07-25T06:27:35.650Z,1568.00
2018-07-25T06:28:36.832Z,1576.00
2018-07-25T06:29:36.772Z,1584.00
2018-07-25T06:30:39.085Z,1588.00
2018-07-25T06:31:37.206Z,1592.00
2018-07-25T06:32:36.492Z,1596.00
2018-07-25T06:33:36.792Z,1604.00
2018-07-25T06:34:43.230Z,1604.00
2018-07-25T06:35:37.193Z,1608.00
2018-07-25T06:36:39.039Z,1616.00
2018-07-25T06:37:37.122Z,1616.00
2018-07-25T06:38:36.889Z,1624.00
2018-07-25T06:39:37.329Z,1620.00
2018-07-25T06:40:36.721Z,1628.00
2018-07-25T06:41:36.417Z,1632.00
2018-07-25T06:42:37.189Z,1636.00
2018-07-25T06:43:36.409Z,1640.00
2018-07-25T06:44:35.687Z,1644.00
2018-07-25T06:45:37.277Z,1656.00
2018-07-25T06:46:37.667Z,1660.00
2018-07-25T06:47:37.089Z,1660.00
2018-07-25T06:48:36.563Z,1664.00
2018-07-25T06:49:36.855Z,1668.00
2018-07-25T06:50:37.671Z,1676.00
2018-07-25T06:51:51.182Z,1684.00
2018-07-25T06:52:36.920Z,1688.00
2018-07-25T06:53:37.492Z,1692.00
2018-07-25T06:54:37.626Z,1696.00
2018-07-25T06:55:39.227Z,1704.00
2018-07-25T06:56:37.331Z,1712.00
2018-07-25T06:57:37.602Z,1716.00
2018-07-25T06:58:36.478Z,1716.00
2018-07-25T06:59:43.165Z,1724.00
2018-07-25T07:00:37.197Z,1728.00
2018-07-25T07:01:36.869Z,1728.00
2018-07-25T07:02:37.190Z,1736.00
2018-07-25T07:03:43.169Z,1744.00
2018-07-25T07:04:36.917Z,1748.00
2018-07-25T07:05:37.464Z,1752.00
2018-07-25T07:06:39.034Z,1760.00
2018-07-25T07:07:37.653Z,1760.00
2018-07-25T07:08:37.320Z,1768.00
2018-07-25T07:09:37.305Z,1776.00
2018-07-25T07:10:37.110Z,1780.00
2018-07-25T07:11:37.199Z,1784.00
2018-07-25T07:12:37.934Z,1792.00
2018-07-25T07:13:37.163Z,1800.00
2018-07-25T07:14:37.428Z,1808.00
2018-07-25T07:15:37.689Z,1816.00
2018-07-25T07:16:37.317Z,1824.00
2018-07-25T07:17:37.322Z,1832.00
2018-07-25T07:18:37.682Z,1836.00
2018-07-25T07:19:37.648Z,1844.00
2018-07-25T07:20:37.263Z,1848.00
2018-07-25T07:21:37.303Z,1856.00
2018-07-25T07:22:37.329Z,1864.00
2018-07-25T07:23:37.309Z,1868.00
2018-07-25T07:24:37.314Z,1876.00
2018-07-25T07:25:37.208Z,1884.00
2018-07-25T07:26:37.216Z,1888.00
2018-07-25T07:27:38.044Z,1896.00
2018-07-25T07:28:37.557Z,1900.00
2018-07-25T07:29:37.871Z,1904.00
2018-07-25T07:30:37.997Z,1908.00
2018-07-25T07:31:38.216Z,1916.00
2018-07-25T07:32:51.688Z,1928.00
2018-07-25T07:33:57.862Z,1936.00
2018-07-25T07:34:37.336Z,1940.00
2018-07-25T07:35:37.206Z,1952.00
2018-07-25T07:36:37.194Z,1952.00
2018-07-25T07:37:37.278Z,1960.00
2018-07-25T07:38:37.875Z,1972.00
2018-07-25T07:39:38.007Z,1984.00
2018-07-25T07:40:37.493Z,1988.00
2018-07-25T07:41:38.058Z,2004.00
2018-07-25T07:42:37.882Z,2012.00
2018-07-25T07:43:39.185Z,2016.00
2018-07-25T07:44:37.626Z,2028.00
2018-07-25T07:45:39.241Z,2032.00
2018-07-25T07:46:37.714Z,2040.00
2018-07-25T07:47:37.256Z,2044.00
2018-07-25T07:48:37.169Z,2056.00
2018-07-25T07:49:37.849Z,2064.00
2018-07-25T07:50:37.866Z,2068.00
2018-07-25T07:51:38.328Z,2080.00
2018-07-25T07:52:37.372Z,2084.00
2018-07-25T07:53:38.164Z,2088.00
2018-07-25T07:54:37.254Z,2092.00
2018-07-25T07:55:37.748Z,2100.00
2018-07-25T07:56:38.244Z,2108.00
2018-07-25T07:57:37.879Z,2112.00
2018-07-25T07:58:37.520Z,2120.00
2018-07-25T07:59:43.194Z,2132.00
2018-07-25T08:00:43.178Z,2140.00
2018-07-25T08:01:39.192Z,2148.00
2018-07-25T08:02:37.534Z,2160.00
2018-07-25T08:03:37.601Z,2168.00
2018-07-25T08:04:37.529Z,2184.00
2018-07-25T08:05:43.145Z,2192.00
2018-07-25T08:06:43.104Z,2208.00
2018-07-25T08:07:37.292Z,2212.00
2018-07-25T08:08:37.291Z,2220.00
2018-07-25T08:09:37.428Z,2232.00
2018-07-25T08:10:37.459Z,2240.00
2018-07-25T08:11:39.701Z,2252.00
2018-07-25T08:12:37.241Z,2264.00
2018-07-25T08:13:37.463Z,2276.00
2018-07-25T08:14:39.693Z,2284.00
2018-07-25T08:15:37.717Z,2296.00
2018-07-25T08:16:37.976Z,2304.00
2018-07-25T08:17:38.568Z,2320.00
2018-07-25T08:18:37.849Z,2328.00
2018-07-25T08:19:44.363Z,2336.00
2018-07-25T08:20:43.779Z,2348.00
2018-07-25T08:21:37.716Z,2360.00
2018-07-25T08:22:37.781Z,2372.00
2018-07-25T08:23:37.627Z,2380.00
2018-07-25T08:24:38.198Z,2392.00
2018-07-25T08:25:37.959Z,2404.00
2018-07-25T08:26:37.718Z,2416.00
2018-07-25T08:27:37.703Z,2432.00
2018-07-25T08:28:37.738Z,2440.00
2018-07-25T08:29:37.938Z,2452.00
2018-07-25T08:30:37.678Z,2464.00
2018-07-25T08:31:44.356Z,2476.00
2018-07-25T08:32:37.795Z,2492.00
2018-07-25T08:33:37.713Z,2500.00
2018-07-25T08:34:37.797Z,2508.00
2018-07-25T08:35:38.387Z,2520.00
2018-07-25T08:36:37.746Z,2532.00
2018-07-25T08:37:37.707Z,2544.00
2018-07-25T08:38:38.274Z,2556.00
2018-07-25T08:39:37.781Z,2572.00
2018-07-25T08:40:37.757Z,2580.00
2018-07-25T08:41:38.359Z,2596.00
2018-07-25T08:42:37.900Z,2608.00
2018-07-25T08:43:38.057Z,2620.00
2018-07-25T08:44:37.426Z,2632.00
2018-07-25T08:45:38.181Z,2648.00
2018-07-25T08:46:43.773Z,2660.00
2018-07-25T08:47:39.258Z,2676.00
2018-07-25T08:48:43.692Z,2688.00
2018-07-25T08:49:38.204Z,2700.00
2018-07-25T08:50:37.652Z,2712.00
2018-07-25T08:51:38.313Z,2728.00
2018-07-25T08:52:37.270Z,2732.00
2018-07-25T08:53:44.042Z,2748.00
2018-07-25T08:54:38.207Z,2764.00
2018-07-25T08:55:38.367Z,2780.00
2018-07-25T08:56:38.366Z,2796.00
2018-07-25T08:57:38.040Z,2808.00
2018-07-25T08:58:37.738Z,2816.00
2018-07-25T08:59:38.252Z,2828.00
2018-07-25T09:00:38.028Z,2840.00
2018-07-25T09:01:37.826Z,2852.00
2018-07-25T09:02:44.222Z,2868.00
2018-07-25T09:03:43.912Z,2884.00
2018-07-25T09:04:37.737Z,2900.00
2018-07-25T09:05:38.194Z,2916.00
2018-07-25T09:06:37.649Z,2932.00
2018-07-25T09:07:37.945Z,2948.00
2018-07-25T09:08:37.915Z,2964.00
2018-07-25T09:09:37.811Z,2980.00
2018-07-25T09:10:43.781Z,2992.00
2018-07-25T09:11:43.742Z,3000.00
2018-07-25T09:12:38.211Z,3012.00
2018-07-25T09:13:37.723Z,3024.00
2018-07-25T09:14:37.746Z,3028.00
2018-07-25T09:15:38.208Z,3036.00
2018-07-25T09:16:38.216Z,3044.00
2018-07-25T09:17:37.640Z,3052.00
2018-07-25T09:18:37.924Z,3060.00
2018-07-25T09:19:38.117Z,3068.00
2018-07-25T09:20:39.495Z,3076.00
2018-07-25T09:21:38.150Z,3092.00
2018-07-25T09:22:38.234Z,3092.00
2018-07-25T09:23:38.316Z,3100.00
2018-07-25T09:24:38.374Z,3116.00
2018-07-25T09:25:40.263Z,3124.00
2018-07-25T09:26:37.661Z,3136.00
2018-07-25T09:27:37.801Z,3140.00
2018-07-25T09:28:38.221Z,3148.00
2018-07-25T09:29:38.256Z,3156.00
2018-07-25T09:30:37.852Z,3168.00
2018-07-25T09:31:37.838Z,3180.00
2018-07-25T09:32:38.172Z,3200.00
2018-07-25T09:33:37.817Z,3212.00
2018-07-25T09:36:11.196Z,3260.00
2018-07-25T09:37:11.817Z,3280.00
2018-07-25T09:39:05.362Z,3328.00
2018-07-25T09:40:07.375Z,3356.00
2018-07-25T09:42:00.061Z,3408.00
2018-07-25T09:42:59.584Z,3432.00
2018-07-25T09:43:59.611Z,3456.00
2018-07-25T09:44:59.266Z,3476.00
2018-07-25T09:46:13.635Z,3488.00
2018-07-25T09:46:59.014Z,3540.00
2018-07-25T09:47:59.593Z,3564.00
2018-07-25T09:49:01.009Z,3588.00
2018-07-25T09:49:59.429Z,3620.00
2018-07-25T09:51:00.028Z,3656.00
2018-07-25T09:51:59.704Z,3688.00
2018-07-25T09:53:05.973Z,3720.00
2018-07-25T09:53:58.278Z,3752.00
2018-07-25T09:54:59.175Z,3772.00
2018-07-25T09:56:21.488Z,3800.00
2018-07-25T09:56:58.857Z,3824.00
2018-07-25T09:59:32.949Z,3888.00
2018-07-25T10:00:34.615Z,3916.00
2018-07-25T10:02:27.797Z,3972.00
2018-07-25T10:03:27.892Z,4008.00
2018-07-25T10:05:22.865Z,4056.00
2018-07-25T10:06:22.479Z,4088.00
2018-07-25T10:07:22.346Z,4116.00
2018-07-25T10:08:36.893Z,4148.00
2018-07-25T10:09:28.364Z,4160.00
2018-07-25T10:11:55.774Z,4252.00
2018-07-25T10:12:55.793Z,4292.00
2018-07-25T10:14:50.093Z,4356.00
2018-07-25T10:15:52.524Z,4384.00
2018-07-25T10:16:50.790Z,4396.00
2018-07-25T10:17:56.510Z,4412.00
2018-07-25T10:18:56.038Z,4432.00
2018-07-25T10:19:52.226Z,4444.00
2018-07-25T10:20:50.725Z,4468.00
2018-07-25T10:21:50.147Z,4488.00
2018-07-25T10:22:50.376Z,4504.00
2018-07-25T10:23:50.184Z,4524.00
2018-07-25T10:25:06.979Z,4540.00
2018-07-25T10:27:24.100Z,4580.00
2018-07-25T10:28:23.710Z,4592.00
2018-07-25T10:30:17.353Z,4620.00
2018-07-25T10:31:18.315Z,4636.00
2018-07-25T10:33:12.340Z,4676.00
2018-07-25T10:34:12.360Z,4700.00
2018-07-25T10:36:22.966Z,4748.00
2018-07-25T10:40:00.057Z,4848.00
2018-07-25T10:41:00.070Z,4872.00
2018-07-25T10:42:54.538Z,4920.00
2018-07-25T10:45:09.428Z,5000.00
2018-07-25T10:46:09.522Z,5036.00
2018-07-25T10:48:08.535Z,5092.00
2018-07-25T10:49:02.108Z,5128.00
2018-07-25T10:50:58.965Z,5188.00
2018-07-25T10:51:58.595Z,5228.00
2018-07-25T10:53:56.194Z,5276.00
2018-07-25T10:54:59.718Z,5304.00
2018-07-25T10:56:07.477Z,5320.00
2018-07-25T10:56:53.075Z,5336.00
2018-07-25T10:57:53.500Z,5364.00
2018-07-25T10:58:53.486Z,5392.00
2018-07-25T10:59:53.074Z,5424.00
2018-07-25T11:00:53.065Z,5452.00
2018-07-25T11:01:53.538Z,5476.00
2018-07-25T11:02:53.666Z,5500.00
2018-07-25T11:04:13.637Z,5516.00
2018-07-25T11:04:53.142Z,5532.00
2018-07-25T11:05:53.969Z,5544.00
2018-07-25T11:06:53.513Z,5552.00
2018-07-25T11:07:53.083Z,5556.00
2018-07-25T11:08:53.153Z,5560.00
2018-07-25T11:09:59.307Z,5568.00
2018-07-25T11:14:01.894Z,5664.00
2018-07-25T11:15:02.319Z,5692.00
2018-07-25T11:16:02.686Z,5728.00
2018-07-25T11:17:03.399Z,5768.00
2018-07-25T11:19:08.334Z,5844.00
2018-07-25T11:20:02.120Z,5888.00
2018-07-25T11:21:08.548Z,5916.00
2018-07-25T11:22:03.755Z,5936.00
2018-07-25T11:24:36.606Z,5980.00
2018-07-25T11:25:36.094Z,5992.00
2018-07-25T11:27:28.764Z,6008.00
2018-07-25T11:29:05.221Z,6020.00
2018-07-25T11:29:30.345Z,6040.00
2018-07-25T11:30:29.236Z,6068.00
2018-07-25T11:31:29.473Z,6096.00
2018-07-25T11:32:29.724Z,6136.00
2018-07-25T11:33:33.076Z,6184.00
2018-07-25T11:34:32.064Z,6240.00
2018-07-25T11:35:29.326Z,6284.00
2018-07-25T11:36:29.674Z,6324.00
2018-07-25T11:37:29.264Z,6368.00
2018-07-25T11:38:29.697Z,6416.00
2018-07-25T11:39:35.658Z,6456.00
2018-07-25T11:40:31.598Z,6508.00
2018-07-25T11:41:29.758Z,6560.00
2018-07-25T11:42:29.759Z,6612.00
2018-07-25T11:43:30.261Z,6664.00
2018-07-25T11:44:29.757Z,6720.00
2018-07-25T11:46:46.997Z,6828.00
2018-07-25T11:47:29.297Z,6884.00
2018-07-25T11:48:34.729Z,6932.00
2018-07-25T11:49:29.741Z,6992.00
2018-07-25T11:50:29.929Z,7052.00
2018-07-25T11:51:29.996Z,7116.00
2018-07-25T11:52:30.454Z,7184.00
2018-07-25T11:53:29.729Z,7260.00
2018-07-25T11:54:32.065Z,7348.00
2018-07-25T11:55:29.506Z,7424.00
2018-07-25T11:56:29.725Z,7508.00
2018-07-25T11:57:29.811Z,7604.00
2018-07-25T11:58:29.585Z,7736.00
2018-07-25T11:59:29.768Z,7860.00
2018-07-25T12:00:29.602Z,8004.00
2018-07-25T12:01:29.503Z,8156.00
2018-07-25T12:02:31.212Z,8296.00
2018-07-25T12:03:35.612Z,8436.00
2018-07-25T12:04:29.770Z,8592.00
2018-07-25T12:05:29.462Z,8716.00
2018-07-25T12:08:03.214Z,9044.00
2018-07-25T12:09:03.342Z,9204.00
2018-07-25T12:10:58.940Z,9504.00
2018-07-25T12:12:19.158Z,9636.00
2018-07-25T12:12:57.082Z,9692.00
2018-07-25T12:13:58.098Z,9672.00
2018-07-25T12:14:57.993Z,9692.00
2018-07-25T12:16:33.619Z,9820.00
2018-07-25T12:16:56.979Z,9820.00
2018-07-25T12:17:57.802Z,9912.00
2018-07-25T12:18:58.085Z,10072.00
2018-07-25T12:19:57.190Z,10656.00
2018-07-25T12:21:03.952Z,16928.00
2018-07-25T12:22:11.957Z,8028.00
2018-07-25T12:22:57.281Z,7864.00
2018-07-25T12:23:58.383Z,13768.00
2018-07-25T12:24:58.898Z,38016.00
2018-07-25T12:25:58.283Z,8360.00
2018-07-25T12:27:11.579Z,7588.00
2018-07-25T12:27:57.936Z,7836.00
2018-07-25T12:29:00.700Z,13440.00
2018-07-25T12:29:58.197Z,42112.00
2018-07-25T12:30:57.223Z,45312.00
2018-07-25T12:31:57.640Z,48224.00
2018-07-25T12:32:57.488Z,47200.00
2018-07-25T12:33:57.869Z,45536.00
2018-07-25T12:34:57.471Z,45600.00
2018-07-25T12:35:56.234Z,9152.00
2018-07-25T12:36:58.365Z,8800.00
2018-07-25T12:37:57.226Z,8420.00
2018-07-25T12:38:57.656Z,8120.00
2018-07-25T12:39:57.651Z,8312.00
2018-07-25T12:40:57.268Z,8500.00
2018-07-25T12:41:58.122Z,8804.00
2018-07-25T12:42:57.636Z,8888.00
2018-07-25T12:47:10.313Z,47264.00
2018-07-25T12:48:06.904Z,22304.00
2018-07-25T12:49:06.635Z,45760.00
2018-07-25T12:51:08.489Z,44416.00
2018-07-25T12:52:06.638Z,45632.00
2018-07-25T12:53:06.270Z,47040.00
2018-07-25T12:54:07.353Z,42240.00
2018-07-25T12:55:06.622Z,32224.00
2018-07-25T12:56:08.020Z,45920.00
2018-07-25T12:57:06.285Z,47264.00
2018-07-25T12:58:06.821Z,47360.00
2018-07-25T12:59:06.613Z,49504.00
2018-07-25T13:00:06.501Z,51712.00
2018-07-25T13:01:06.732Z,54208.00
2018-07-25T13:02:06.303Z,57696.00
2018-07-25T13:03:06.518Z,15868.00
2018-07-25T13:04:12.188Z,72832.00
2018-07-25T13:05:12.241Z,61664.00